Time;durP1;ratioP1;P1;durP2;ratioP2;P2;SDS_P1;SDS_P2;PMS_P1;PMS_P2;Temp;Humidity;BMP_temperature;BMP_pressure;BME280_temperature;BME280_humidity;BME280_pressure;Samples;Min_cycle;Max_cycle;Signal;HPM_P1;HPM_P2
2022/07/18 00:00:27;;;;;;;7.90;2.00;;;16.00;1.00;;;;;;5052669;28;20434;-73
2022/07/18 00:02:52;;;;;;;2.73;1.90;;;16.00;1.00;;;;;;5053533;28;20169;-73
2022/07/18 00:05:18;;;;;;;4.03;2.43;;;16.00;1.00;;;;;;5053403;28;20182;-73
2022/07/18 00:07:44;;;;;;;5.13;2.20;;;16.10;1.00;;;;;;5053399;28;20177;-73
2022/07/18 00:10:10;;;;;;;3.27;2.10;;;16.00;1.00;;;;;;5048293;28;20704;-73
2022/07/18 00:12:36;;;;;;;3.33;2.03;;;16.10;1.00;;;;;;5052363;28;20255;-73
2022/07/18 00:15:03;;;;;;;3.23;2.00;;;16.10;1.00;;;;;;5053625;28;20422;-73
2022/07/18 00:17:28;;;;;;;2.67;1.60;;;16.10;1.00;;;;;;5053483;28;20426;-73
2022/07/18 00:19:54;;;;;;;5.50;2.57;;;16.20;1.00;;;;;;5040193;28;20446;-73
2022/07/18 00:22:20;;;;;;;2.97;2.03;;;16.20;1.00;;;;;;5053083;28;20234;-73
2022/07/18 00:24:46;;;;;;;5.27;2.83;;;16.20;1.00;;;;;;5053500;28;20180;-73
2022/07/18 00:27:12;;;;;;;7.30;2.60;;;16.20;1.00;;;;;;5052980;28;20236;-73
2022/07/18 00:29:38;;;;;;;4.90;2.00;;;16.20;1.00;;;;;;5053029;28;20269;-73
2022/07/18 00:32:06;;;;;;;6.93;2.10;;;16.10;1.00;;;;;;5053780;28;20527;-73
2022/07/18 00:34:33;;;;;;;6.03;1.90;;;16.20;1.00;;;;;;5052150;28;20446;-73
2022/07/18 00:36:58;;;;;;;5.23;2.40;;;16.20;1.00;;;;;;5039902;28;20434;-74
2022/07/18 00:39:30;;;;;;;3.93;2.03;;;16.20;1.00;;;;;;5043430;28;20437;-73
2022/07/18 00:41:55;;;;;;;8.83;2.37;;;16.20;1.00;;;;;;5048700;28;20697;-73
2022/07/18 00:44:24;;;;;;;2.13;1.93;;;16.20;1.00;;;;;;5053360;28;20415;-73
2022/07/18 00:46:56;;;;;;;2.30;1.63;;;16.20;1.00;;;;;;5052920;28;20183;-76
2022/07/18 00:49:24;;;;;;;4.93;2.03;;;16.30;1.00;;;;;;5044755;28;20422;-76
2022/07/18 00:51:50;;;;;;;3.37;2.10;;;16.20;1.00;;;;;;5053329;28;20479;-76
2022/07/18 00:54:16;;;;;;;3.97;2.53;;;16.20;1.00;;;;;;5043308;28;20542;-76
2022/07/18 00:56:43;;;;;;;4.10;1.93;;;16.20;1.00;;;;;;5038036;28;20180;-76
2022/07/18 00:59:10;;;;;;;3.30;2.13;;;16.20;1.00;;;;;;5043069;28;20385;-76
2022/07/18 01:01:42;;;;;;;2.60;1.77;;;16.20;1.00;;;;;;5039966;28;20515;-73
2022/07/18 01:04:11;;;;;;;12.30;2.50;;;16.30;1.00;;;;;;5051701;28;20431;-73
2022/07/18 01:06:37;;;;;;;2.27;1.90;;;16.20;1.00;;;;;;5052679;28;20422;-73
2022/07/18 01:09:03;;;;;;;9.53;2.20;;;16.10;1.00;;;;;;5052745;28;20873;-74
2022/07/18 01:11:30;;;;;;;8.30;2.03;;;16.20;1.00;;;;;;5052622;28;20398;-73
2022/07/18 01:13:55;;;;;;;2.40;2.00;;;16.10;1.00;;;;;;5042208;28;20187;-73
2022/07/18 01:16:24;;;;;;;6.20;2.10;;;16.10;1.00;;;;;;5045239;28;20815;-76
2022/07/18 01:18:50;;;;;;;11.93;2.40;;;16.10;1.00;;;;;;5032049;28;20567;-78
2022/07/18 01:21:18;;;;;;;4.77;1.90;;;16.10;1.00;;;;;;5051260;28;20806;-76
2022/07/18 01:23:54;;;;;;;4.93;1.97;;;16.00;1.00;;;;;;5053306;28;20414;-76
2022/07/18 01:26:20;;;;;;;9.10;2.17;;;16.00;1.00;;;;;;5056520;28;20417;-76
2022/07/18 01:28:46;;;;;;;5.20;2.00;;;16.00;1.00;;;;;;5056870;28;20434;-76
2022/07/18 01:31:18;;;;;;;7.70;2.10;;;15.90;1.00;;;;;;5052669;28;20426;-76
2022/07/18 01:33:54;;;;;;;4.60;1.73;;;15.90;1.00;;;;;;5047498;28;20475;-76
2022/07/18 01:36:53;;;;;;;3.20;1.30;;;15.80;1.00;;;;;;5037531;28;20423;-76
2022/07/18 01:39:24;;;;;;;7.50;1.50;;;15.80;1.00;;;;;;5056539;28;20426;-76
2022/07/18 01:42:07;;;;;;;5.40;1.40;;;15.70;1.00;;;;;;5056562;28;20461;-76
2022/07/18 01:44:37;;;;;;;5.20;1.83;;;15.70;1.00;;;;;;5045509;28;20408;-76
2022/07/18 01:47:05;;;;;;;3.10;1.47;;;15.60;1.00;;;;;;5056731;28;20441;-76
2022/07/18 01:49:32;;;;;;;3.87;1.43;;;15.60;1.00;;;;;;5045412;28;20423;-76
2022/07/18 01:52:00;;;;;;;3.60;2.00;;;15.60;1.00;;;;;;5052597;28;20404;-78
2022/07/18 01:54:36;;;;;;;4.63;1.70;;;15.50;1.00;;;;;;5052291;28;20422;-76
2022/07/18 01:57:04;;;;;;;3.50;1.90;;;15.50;1.00;;;;;;5048121;28;20466;-76
2022/07/18 01:59:30;;;;;;;3.43;1.97;;;15.50;1.00;;;;;;5048504;28;20461;-77
2022/07/18 02:02:06;;;;;;;2.50;1.50;;;15.40;1.00;;;;;;5042547;28;20490;-76
2022/07/18 02:07:37;;;;;;;3.40;1.17;;;15.30;1.00;;;;;;5056322;28;20425;-77
2022/07/18 02:10:20;;;;;;;4.60;1.67;;;15.30;1.00;;;;;;5041345;28;20972;-76
2022/07/18 02:12:54;;;;;;;8.60;1.97;;;15.20;1.00;;;;;;5055323;28;20377;-78
2022/07/18 02:15:30;;;;;;;1.53;1.37;;;15.20;1.00;;;;;;5055999;28;20831;-76
2022/07/18 02:18:00;;;;;;;2.13;1.80;;;15.10;1.00;;;;;;5056131;28;20396;-76
2022/07/18 02:20:30;;;;;;;6.17;2.30;;;15.10;1.00;;;;;;5043062;28;20456;-76
2022/07/18 02:22:55;;;;;;;7.03;1.57;;;15.00;1.00;;;;;;5055330;28;20399;-76
2022/07/18 02:25:30;;;;;;;5.33;1.73;;;15.00;1.00;;;;;;5053386;28;20508;-76
2022/07/18 02:28:06;;;;;;;5.97;1.80;;;14.90;1.00;;;;;;5053664;28;20171;-77
2022/07/18 02:30:42;;;;;;;2.40;1.30;;;14.90;1.00;;;;;;5044676;28;20473;-76
2022/07/18 02:33:07;;;;;;;1.67;1.30;;;14.90;1.00;;;;;;5046038;28;20449;-74
2022/07/18 02:35:33;;;;;;;2.20;1.50;;;14.80;1.00;;;;;;5055110;28;20469;-73
2022/07/18 02:38:06;;;;;;;1.40;1.30;;;14.80;1.00;;;;;;5048296;28;20222;-73
2022/07/18 02:40:32;;;;;;;3.50;1.63;;;14.80;1.00;;;;;;5055262;28;20453;-74
2022/07/18 02:42:57;;;;;;;4.80;1.53;;;14.80;1.00;;;;;;5054343;28;20436;-73
2022/07/18 02:45:23;;;;;;;4.20;1.73;;;14.70;1.00;;;;;;5053756;28;20176;-73
2022/07/18 02:47:54;;;;;;;2.30;1.43;;;14.70;1.00;;;;;;5055191;28;20263;-73
2022/07/18 02:50:19;;;;;;;5.67;1.30;;;14.60;1.00;;;;;;5055287;28;20391;-73
2022/07/18 02:52:46;;;;;;;4.00;1.63;;;14.70;1.00;;;;;;5052278;28;20521;-73
2022/07/18 02:55:13;;;;;;;4.00;1.47;;;14.60;1.00;;;;;;5055000;28;20175;-74
2022/07/18 02:57:43;;;;;;;2.10;1.43;;;14.50;1.00;;;;;;5047859;28;20413;-73
2022/07/18 03:00:11;;;;;;;3.13;1.47;;;14.50;1.00;;;;;;5038443;28;20437;-73
2022/07/18 03:02:43;;;;;;;6.17;1.70;;;14.40;1.00;;;;;;5054772;28;20430;-73
2022/07/18 03:05:09;;;;;;;5.60;1.87;;;14.40;1.00;;;;;;5038601;28;20803;-74
2022/07/18 03:07:35;;;;;;;5.67;1.87;;;14.40;1.00;;;;;;5054441;28;20756;-73
2022/07/18 03:10:06;;;;;;;6.10;2.07;;;14.40;1.00;;;;;;5054680;28;20392;-73
2022/07/18 03:12:32;;;;;;;6.37;1.30;;;14.30;1.00;;;;;;5045134;28;20409;-73
2022/07/18 03:14:59;;;;;;;10.03;1.63;;;14.30;1.00;;;;;;5054673;28;20858;-74
2022/07/18 03:17:36;;;;;;;14.43;2.00;;;14.30;1.00;;;;;;5054458;28;20393;-74
2022/07/18 03:20:02;;;;;;;2.67;1.53;;;14.30;1.00;;;;;;5054297;28;20785;-74
2022/07/18 03:22:28;;;;;;;3.00;1.87;;;14.20;1.00;;;;;;5054402;28;20560;-74
2022/07/18 03:24:54;;;;;;;3.50;1.53;;;14.20;1.00;;;;;;5054374;28;20511;-73
2022/07/18 03:27:24;;;;;;;3.13;1.70;;;14.20;1.00;;;;;;5047055;28;20184;-74
2022/07/18 03:29:54;;;;;;;2.47;1.50;;;14.20;1.00;;;;;;5046611;28;20542;-73
2022/07/18 03:32:24;;;;;;;1.87;1.30;;;14.20;1.00;;;;;;5047432;28;20393;-76
2022/07/18 03:34:49;;;;;;;2.90;1.87;;;14.20;1.00;;;;;;5052498;28;20747;-77
2022/07/18 03:37:24;;;;;;;5.20;1.73;;;14.10;1.00;;;;;;5043235;28;20381;-76
2022/07/18 03:39:54;;;;;;;2.17;1.63;;;14.10;1.00;;;;;;5051068;28;20556;-76
2022/07/18 03:42:24;;;;;;;2.20;1.80;;;14.10;1.00;;;;;;5047034;28;20975;-77
2022/07/18 03:45:00;;;;;;;3.60;2.10;;;14.10;1.00;;;;;;5054090;28;20415;-76
2022/07/18 03:47:36;;;;;;;6.00;1.60;;;14.10;1.00;;;;;;5053791;28;20873;-76
2022/07/18 03:50:02;;;;;;;3.20;1.53;;;14.10;1.00;;;;;;5034209;28;20369;-76
2022/07/18 03:52:36;;;;;;;4.40;2.30;;;14.10;1.00;;;;;;5053943;28;20418;-76
2022/07/18 03:55:03;;;;;;;7.87;2.10;;;14.00;1.00;;;;;;5045041;28;21023;-77
2022/07/18 03:57:30;;;;;;;1.70;1.30;;;14.10;1.00;;;;;;5039444;28;20389;-74
2022/07/18 03:59:55;;;;;;;4.73;1.30;;;14.00;1.00;;;;;;5039855;28;20938;-74
2022/07/18 04:02:24;;;;;;;3.30;1.40;;;14.00;1.00;;;;;;5050438;28;20567;-74
2022/07/18 04:04:54;;;;;;;6.80;1.53;;;14.10;1.00;;;;;;5039037;28;20175;-74
2022/07/18 04:07:19;;;;;;;4.50;2.67;;;14.10;1.00;;;;;;5052260;28;20886;-74
2022/07/18 04:09:48;;;;;;;3.37;1.57;;;14.10;1.00;;;;;;5053933;28;20460;-74
2022/07/18 04:12:13;;;;;;;14.20;1.70;;;14.10;1.00;;;;;;5049490;28;20190;-74
2022/07/18 04:14:42;;;;;;;6.57;1.70;;;14.10;1.00;;;;;;5042932;28;20414;-74
2022/07/18 04:17:24;;;;;;;4.40;1.40;;;14.10;1.00;;;;;;5053356;28;20650;-74
2022/07/18 04:19:51;;;;;;;7.57;1.30;;;14.10;1.00;;;;;;5053885;28;20446;-75
2022/07/18 04:22:18;;;;;;;10.47;1.97;;;14.10;1.00;;;;;;5053492;28;20456;-74
2022/07/18 04:24:44;;;;;;;8.73;1.60;;;14.10;1.00;;;;;;5053916;28;20369;-75
2022/07/18 04:27:09;;;;;;;4.53;1.60;;;14.20;1.00;;;;;;5042306;28;20435;-74
2022/07/18 04:29:37;;;;;;;6.73;1.50;;;14.20;1.00;;;;;;5053398;28;20245;-74
2022/07/18 04:32:03;;;;;;;3.30;1.67;;;14.20;1.00;;;;;;5053474;28;20417;-74
2022/07/18 04:34:29;;;;;;;2.50;1.50;;;14.20;1.00;;;;;;5049199;28;20967;-74
2022/07/18 04:36:55;;;;;;;1.73;1.63;;;14.30;1.00;;;;;;5053459;28;20420;-74
2022/07/18 04:39:24;;;;;;;7.27;1.07;;;14.40;1.00;;;;;;5053415;28;20657;-74
2022/07/18 04:41:55;;;;;;;4.10;1.80;;;14.40;1.00;;;;;;5053317;28;20623;-74
2022/07/18 04:44:24;;;;;;;10.40;1.80;;;14.40;1.00;;;;;;5049869;28;20924;-75
2022/07/18 04:46:54;;;;;;;13.63;2.07;;;14.40;1.00;;;;;;5053529;28;20904;-75
2022/07/18 04:49:24;;;;;;;1.73;1.53;;;14.50;1.00;;;;;;5052318;28;20890;-75
2022/07/18 04:51:50;;;;;;;6.63;1.70;;;14.60;1.00;;;;;;5053439;28;20750;-75
2022/07/18 04:54:24;;;;;;;2.80;1.70;;;14.60;1.00;;;;;;5038195;28;20422;-75
2022/07/18 04:56:54;;;;;;;4.83;1.60;;;14.70;1.00;;;;;;5038208;28;20180;-75
2022/07/18 04:59:24;;;;;;;2.87;1.80;;;14.80;1.00;;;;;;5046086;28;20401;-74
2022/07/18 05:01:50;;;;;;;8.63;2.60;;;14.90;1.00;;;;;;5056921;28;20750;-74
2022/07/18 05:04:16;;;;;;;7.97;2.20;;;14.90;1.00;;;;;;5051048;28;20388;-76
2022/07/18 05:06:42;;;;;;;9.60;2.27;;;15.00;1.00;;;;;;5055652;28;20211;-77
2022/07/18 05:09:24;;;;;;;10.20;1.73;;;15.10;1.00;;;;;;5044207;28;20459;-76
2022/07/18 05:12:00;;;;;;;7.60;2.20;;;15.20;1.00;;;;;;5043410;28;20448;-76
2022/07/18 05:14:26;;;;;;;10.70;2.03;;;15.30;1.00;;;;;;5052581;28;20450;-75
2022/07/18 05:16:54;;;;;;;6.03;1.77;;;15.40;1.00;;;;;;5041410;28;20916;-75
2022/07/18 05:19:20;;;;;;;5.67;1.90;;;15.50;1.00;;;;;;5046394;28;20755;-76
2022/07/18 05:22:05;;;;;;;5.10;1.80;;;15.60;1.00;;;;;;5045010;28;20422;-77
2022/07/18 05:24:31;;;;;;;6.37;1.87;;;15.70;1.00;;;;;;5049813;28;20172;-76
2022/07/18 05:26:57;;;;;;;9.30;2.60;;;15.80;1.00;;;;;;5050106;28;20377;-76
2022/07/18 05:29:22;;;;;;;4.87;1.90;;;15.90;1.00;;;;;;5050596;28;20237;-76
2022/07/18 05:31:48;;;;;;;14.00;2.77;;;16.00;1.00;;;;;;5056571;28;20164;-76
2022/07/18 05:34:18;;;;;;;11.30;2.53;;;16.20;1.00;;;;;;5048433;28;20172;-74
2022/07/18 05:36:44;;;;;;;7.70;1.27;;;16.30;1.00;;;;;;5056587;28;20172;-81
2022/07/18 05:39:25;;;;;;;13.40;6.70;;;16.40;1.00;;;;;;5056302;28;20421;-86
2022/07/18 05:48:35;;;;;;;7.07;1.90;;;16.80;1.00;;;;;;5048770;28;20382;-84
2022/07/18 05:58:05;;;;;;;5.87;1.90;;;17.30;1.00;;;;;;5042568;28;20427;-85
2022/07/18 06:03:52;;;;;;;4.50;1.60;;;17.60;1.00;;;;;;5055883;28;20771;-80
2022/07/18 06:06:36;;;;;;;5.80;1.70;;;17.80;1.00;;;;;;5043598;28;20505;-80
2022/07/18 06:09:06;;;;;;;11.97;2.17;;;18.00;1.00;;;;;;5055839;28;20172;-81
2022/07/18 06:14:54;;;;;;;4.10;1.70;;;18.30;1.00;;;;;;5045883;28;20398;-80
2022/07/18 06:20:41;;;;;;;3.73;1.70;;;18.70;1.00;;;;;;5054688;28;20605;-75
2022/07/18 06:23:12;;;;;;;6.57;1.70;;;18.90;1.00;;;;;;5051322;28;20429;-75
2022/07/18 06:25:42;;;;;;;3.30;1.43;;;19.10;1.00;;;;;;5055547;28;20656;-77
2022/07/18 06:28:12;;;;;;;7.93;1.73;;;19.30;1.00;;;;;;5042678;28;20423;-75
2022/07/18 06:30:54;;;;;;;2.77;1.57;;;19.40;1.00;;;;;;5042271;28;21023;-76
2022/07/18 06:33:24;;;;;;;6.87;1.50;;;19.70;1.00;;;;;;5055593;28;20418;-75
2022/07/18 06:35:50;;;;;;;4.10;1.13;;;19.90;1.00;;;;;;5049571;28;20488;-75
2022/07/18 06:38:16;;;;;;;9.90;2.10;;;20.10;1.00;;;;;;5055486;28;20414;-75
2022/07/18 06:40:48;;;;;;;5.70;1.67;;;20.30;1.00;;;;;;5056430;28;20468;-76
2022/07/18 06:43:21;;;;;;;5.00;1.30;;;20.50;1.00;;;;;;5075752;28;20906;-75
2022/07/18 06:45:48;;;;;;;10.43;2.20;;;20.70;1.00;;;;;;5054902;28;20514;-74
2022/07/18 06:48:18;;;;;;;6.87;1.27;;;20.80;1.00;;;;;;5054707;28;20474;-74
2022/07/18 06:50:44;;;;;;;18.60;1.67;;;21.00;1.00;;;;;;5054129;28;20427;-74
2022/07/18 06:53:10;;;;;;;7.80;1.83;;;21.20;1.00;;;;;;5068688;28;20404;-75
2022/07/18 06:55:35;;;;;;;7.70;1.53;;;21.40;1.00;;;;;;5053926;28;20222;-74
2022/07/18 06:58:01;;;;;;;11.27;1.70;;;21.50;1.00;;;;;;5042696;28;20791;-75
2022/07/18 07:00:30;;;;;;;9.30;1.80;;;21.60;1.00;;;;;;5048848;28;20234;-76
2022/07/18 07:03:17;;;;;;;10.13;1.83;;;21.80;1.00;;;;;;5035176;28;20174;-77
2022/07/18 07:05:43;;;;;;;2.63;1.83;;;22.00;1.00;;;;;;5045049;28;20454;-78
2022/07/18 07:08:24;;;;;;;13.97;1.70;;;22.10;1.00;;;;;;5038023;28;20440;-78
2022/07/18 07:10:54;;;;;;;7.87;1.70;;;22.30;1.00;;;;;;5054367;28;20179;-78
2022/07/18 07:13:36;;;;;;;9.20;1.40;;;22.40;1.00;;;;;;5054479;28;20499;-78
2022/07/18 07:16:12;;;;;;;4.30;1.63;;;22.60;1.00;;;;;;5048117;28;20420;-78
2022/07/18 07:19:17;;;;;;;7.53;1.80;;;22.70;1.00;;;;;;5035643;28;20448;-78
2022/07/18 07:21:48;;;;;;;2.70;1.57;;;22.90;1.00;;;;;;5043705;28;20858;-78
2022/07/18 07:24:18;;;;;;;2.87;1.37;;;23.00;1.00;;;;;;5034318;28;20388;-78
2022/07/18 07:26:48;;;;;;;5.13;1.43;;;23.20;1.00;;;;;;5033026;28;20430;-78
2022/07/18 07:29:30;;;;;;;5.77;1.97;;;23.30;1.00;;;;;;5058432;28;20536;-78
2022/07/18 07:32:00;;;;;;;2.40;1.37;;;23.40;1.00;;;;;;5057005;28;20419;-78
2022/07/18 07:34:47;;;;;;;2.70;1.67;;;23.60;1.00;;;;;;5073789;28;20419;-78
2022/07/18 07:37:24;;;;;;;2.73;1.23;;;23.70;1.00;;;;;;5044399;28;20993;-78
2022/07/18 07:39:54;;;;;;;7.97;1.50;;;23.90;1.00;;;;;;5034183;28;20446;-78
2022/07/18 07:42:53;;;;;;;1.83;1.20;;;24.00;1.00;;;;;;5034177;28;20468;-79
2022/07/18 07:45:24;;;;;;;2.90;1.40;;;24.10;1.00;;;;;;5045871;28;20557;-79
2022/07/18 07:48:00;;;;;;;2.70;1.30;;;24.30;1.00;;;;;;5046845;28;20413;-78
2022/07/18 07:50:30;;;;;;;3.33;1.30;;;24.40;1.00;;;;;;5034379;28;20405;-77
2022/07/18 07:52:59;;;;;;;2.37;1.33;;;24.50;1.00;;;;;;5044027;28;20841;-75
2022/07/18 07:55:26;;;;;;;5.37;1.50;;;24.70;1.00;;;;;;5053759;28;20408;-75
2022/07/18 07:57:54;;;;;;;0.97;0.97;;;24.90;1.00;;;;;;5044858;28;20417;-75
2022/07/18 08:00:20;;;;;;;2.60;1.47;;;25.00;1.00;;;;;;5050209;28;20466;-74
2022/07/18 08:02:54;;;;;;;11.93;1.87;;;25.20;1.00;;;;;;5052042;28;20449;-75
2022/07/18 08:05:20;;;;;;;2.27;1.40;;;25.40;1.00;;;;;;5042525;28;20748;-73
2022/07/18 08:07:46;;;;;;;2.90;1.40;;;25.40;1.00;;;;;;5052766;28;20420;-73
2022/07/18 08:10:12;;;;;;;4.50;1.50;;;25.60;1.00;;;;;;5045154;28;20668;-72
2022/07/18 08:12:38;;;;;;;6.37;1.43;;;25.60;1.00;;;;;;5052346;28;20429;-73
2022/07/18 08:15:04;;;;;;;2.63;1.00;;;25.70;1.00;;;;;;5053059;28;20167;-75
2022/07/18 08:17:30;;;;;;;4.90;1.30;;;25.80;1.00;;;;;;5054368;28;20705;-74
2022/07/18 08:19:55;;;;;;;3.27;1.60;;;25.90;1.00;;;;;;5053651;28;20455;-70
2022/07/18 08:22:21;;;;;;;2.13;1.60;;;25.90;1.00;;;;;;5052088;28;20180;-70
2022/07/18 08:24:47;;;;;;;3.33;1.33;;;25.90;1.00;;;;;;5050490;28;20198;-70
2022/07/18 08:27:13;;;;;;;2.53;1.00;;;26.00;1.00;;;;;;5039159;28;20563;-70
2022/07/18 08:29:39;;;;;;;3.00;1.40;;;26.10;1.00;;;;;;5042118;28;20221;-70
2022/07/18 08:32:04;;;;;;;3.93;1.30;;;26.30;1.00;;;;;;5050987;28;20458;-70
2022/07/18 08:34:31;;;;;;;8.93;1.20;;;26.40;1.00;;;;;;5039005;28;20231;-70
2022/07/18 08:36:56;;;;;;;3.93;1.37;;;26.60;1.00;;;;;;5052938;28;20179;-70
2022/07/18 08:39:22;;;;;;;2.83;1.10;;;26.70;1.00;;;;;;5047164;28;20424;-70
2022/07/18 08:41:50;;;;;;;2.10;1.30;;;26.80;1.00;;;;;;5052877;28;20190;-70
2022/07/18 08:44:17;;;;;;;1.97;1.33;;;27.00;1.00;;;;;;5035515;28;20210;-70
2022/07/18 08:46:49;;;;;;;2.73;1.50;;;27.00;1.00;;;;;;5052683;28;20922;-70
2022/07/18 08:49:15;;;;;;;4.33;1.37;;;27.10;1.00;;;;;;5051884;28;20468;-70
2022/07/18 08:51:42;;;;;;;2.33;1.00;;;27.30;1.00;;;;;;5044870;28;21036;-70
2022/07/18 08:54:09;;;;;;;2.40;1.50;;;27.50;1.00;;;;;;5051489;28;20169;-70
2022/07/18 08:56:35;;;;;;;7.00;1.40;;;27.60;1.00;;;;;;5051270;28;20479;-70
2022/07/18 08:59:04;;;;;;;5.10;1.30;;;27.80;1.00;;;;;;5047229;28;20828;-70
2022/07/18 09:01:30;;;;;;;2.17;1.17;;;28.00;1.00;;;;;;5042339;28;20206;-70
2022/07/18 09:06:57;;;;;;;2.27;1.33;;;28.30;1.00;;;;;;5036931;28;20422;-75
2022/07/18 09:09:23;;;;;;;7.90;1.30;;;28.50;1.00;;;;;;5032099;28;20431;-75
2022/07/18 09:12:03;;;;;;;4.53;1.43;;;28.60;1.00;;;;;;5030748;28;20410;-75
2022/07/18 09:14:44;;;;;;;5.10;1.30;;;28.80;1.00;;;;;;5036947;28;20720;-74
2022/07/18 09:17:13;;;;;;;1.97;1.10;;;28.90;1.00;;;;;;5030928;28;20469;-75
2022/07/18 09:19:57;;;;;;;4.40;1.47;;;29.00;1.00;;;;;;5030738;28;20871;-74
2022/07/18 09:22:25;;;;;;;6.23;1.23;;;29.10;1.00;;;;;;5031000;28;20447;-70
2022/07/18 09:25:13;;;;;;;4.00;1.60;;;29.20;1.00;;;;;;5033235;28;20433;-70
2022/07/18 09:27:42;;;;;;;2.47;1.20;;;29.30;1.00;;;;;;5030549;28;20457;-70
2022/07/18 09:30:19;;;;;;;2.53;1.00;;;29.40;1.00;;;;;;5035842;28;20538;-70
2022/07/18 09:32:48;;;;;;;1.50;1.20;;;29.40;1.00;;;;;;5018236;28;20955;-70
2022/07/18 09:35:17;;;;;;;1.40;1.10;;;29.60;1.00;;;;;;5033617;28;20442;-70
2022/07/18 09:38:07;;;;;;;3.20;1.13;;;29.80;1.00;;;;;;5032256;28;20613;-75
2022/07/18 09:40:42;;;;;;;4.90;1.20;;;30.00;1.00;;;;;;5041494;28;20464;-75
2022/07/18 09:43:12;;;;;;;5.80;1.20;;;30.10;1.00;;;;;;5044391;28;20440;-75
2022/07/18 09:45:44;;;;;;;4.10;1.00;;;30.30;1.00;;;;;;5053678;28;20842;-75
2022/07/18 09:48:24;;;;;;;1.47;1.07;;;30.30;1.00;;;;;;5054707;28;20800;-75
2022/07/18 09:50:58;;;;;;;2.10;0.90;;;30.40;1.00;;;;;;5048874;28;20426;-71
2022/07/18 09:53:34;;;;;;;1.93;1.07;;;30.60;1.00;;;;;;5055512;28;20449;-69
2022/07/18 09:56:08;;;;;;;8.30;1.13;;;30.70;1.00;;;;;;5045678;28;20413;-69
2022/07/18 09:58:38;;;;;;;3.17;1.23;;;30.80;1.00;;;;;;5039380;28;20457;-69
2022/07/18 10:01:06;;;;;;;1.30;0.83;;;30.80;1.00;;;;;;5049029;28;20465;-69
2022/07/18 10:03:32;;;;;;;3.33;1.00;;;30.90;1.00;;;;;;5055523;28;20517;-69
2022/07/18 10:06:00;;;;;;;1.53;1.27;;;30.80;1.00;;;;;;5055283;28;20556;-69
2022/07/18 10:08:32;;;;;;;1.40;1.07;;;30.80;1.00;;;;;;5036094;28;20420;-76
2022/07/18 10:11:00;;;;;;;4.57;0.90;;;30.90;1.00;;;;;;5048102;28;20761;-76
2022/07/18 10:13:37;;;;;;;3.90;1.23;;;30.80;1.00;;;;;;5044593;28;20976;-76
2022/07/18 10:16:04;;;;;;;5.43;1.17;;;30.90;1.00;;;;;;5055479;28;20426;-75
2022/07/18 10:18:32;;;;;;;1.53;1.23;;;31.00;1.00;;;;;;5045682;28;20434;-76
2022/07/18 10:21:03;;;;;;;4.40;1.57;;;31.10;1.00;;;;;;5048843;28;20859;-76
2022/07/18 10:23:40;;;;;;;3.17;1.00;;;31.20;1.00;;;;;;5044933;28;20427;-76
2022/07/18 10:26:23;;;;;;;3.17;1.00;;;31.40;1.00;;;;;;5035886;28;20407;-75
2022/07/18 10:29:00;;;;;;;1.03;0.90;;;31.40;1.00;;;;;;5050818;28;20403;-76
2022/07/18 10:31:28;;;;;;;1.30;1.10;;;31.50;1.00;;;;;;5053447;28;20449;-76
2022/07/18 10:34:14;;;;;;;1.67;1.00;;;31.60;1.00;;;;;;5044205;28;20476;-76
2022/07/18 10:36:40;;;;;;;1.43;1.13;;;31.70;1.00;;;;;;5048954;28;20453;-69
2022/07/18 10:39:20;;;;;;;4.20;1.10;;;31.80;1.00;;;;;;5043897;28;20860;-69
2022/07/18 10:41:45;;;;;;;1.57;0.80;;;31.90;1.00;;;;;;5047308;28;20446;-69
2022/07/18 10:44:25;;;;;;;2.00;1.00;;;31.90;1.00;;;;;;5046575;28;20952;-69
2022/07/18 10:47:08;;;;;;;4.50;1.33;;;32.10;1.00;;;;;;5046637;28;20172;-69
2022/07/18 10:49:45;;;;;;;2.10;1.17;;;32.20;1.00;;;;;;5040756;28;20468;-70
2022/07/18 10:52:26;;;;;;;2.03;1.10;;;32.10;1.00;;;;;;5041907;28;20415;-70
2022/07/18 10:55:04;;;;;;;2.20;1.13;;;32.20;1.00;;;;;;5040813;28;20510;-70
2022/07/18 10:57:41;;;;;;;4.50;1.20;;;32.10;1.00;;;;;;5054402;28;20417;-69
2022/07/18 11:00:11;;;;;;;1.83;1.10;;;32.20;1.00;;;;;;5053116;28;21006;-70
2022/07/18 11:02:47;;;;;;;7.93;1.27;;;32.20;1.00;;;;;;5054273;28;20421;-69
2022/07/18 11:05:22;;;;;;;1.60;1.10;;;32.30;1.00;;;;;;5049015;28;20430;-71
2022/07/18 11:08:03;;;;;;;6.23;1.20;;;32.40;1.00;;;;;;5035976;28;20493;-75
2022/07/18 11:10:46;;;;;;;2.53;0.90;;;32.50;1.00;;;;;;5045244;28;20435;-80
2022/07/18 11:13:22;;;;;;;1.37;1.20;;;32.60;1.00;;;;;;5049635;28;20406;-81
2022/07/18 11:16:13;;;;;;;1.60;1.07;;;32.80;1.00;;;;;;5051166;28;20453;-83
2022/07/18 11:19:17;;;;;;;2.07;1.20;;;32.80;1.00;;;;;;5033890;28;20790;-81
2022/07/18 11:21:44;;;;;;;1.10;1.00;;;33.00;1.00;;;;;;5034859;28;20438;-80
2022/07/18 11:24:35;;;;;;;2.90;0.97;;;33.00;1.00;;;;;;5040298;28;20408;-84
2022/07/18 11:27:04;;;;;;;1.30;1.13;;;33.00;1.00;;;;;;5054392;28;20394;-80
2022/07/18 11:29:40;;;;;;;4.50;1.30;;;33.10;1.00;;;;;;5044531;28;20486;-80
2022/07/18 11:32:36;;;;;;;1.73;1.20;;;33.20;1.00;;;;;;5045285;28;20933;-81
2022/07/18 11:35:20;;;;;;;0.90;0.90;;;33.30;1.00;;;;;;5050176;28;20425;-80
2022/07/18 11:37:49;;;;;;;2.97;1.10;;;33.40;1.00;;;;;;5053266;28;20505;-83
2022/07/18 11:40:15;;;;;;;1.17;1.00;;;33.50;1.00;;;;;;5043171;28;20945;-77
2022/07/18 11:42:42;;;;;;;1.43;1.33;;;33.70;1.00;;;;;;5049756;28;20418;-77
2022/07/18 11:45:13;;;;;;;3.63;1.10;;;33.80;1.00;;;;;;5035012;28;20414;-76
2022/07/18 11:47:45;;;;;;;2.93;1.00;;;33.90;1.00;;;;;;5042852;28;20426;-76
2022/07/18 11:50:12;;;;;;;3.13;1.20;;;34.10;1.00;;;;;;5054260;28;20502;-77
2022/07/18 11:52:38;;;;;;;1.93;1.10;;;34.20;1.00;;;;;;5054269;28;20405;-74
2022/07/18 11:55:04;;;;;;;1.10;1.00;;;34.20;1.00;;;;;;5053636;28;20418;-74
2022/07/18 11:57:32;;;;;;;4.17;1.00;;;34.30;1.00;;;;;;5053898;28;20191;-74
2022/07/18 11:59:59;;;;;;;1.10;1.03;;;34.30;1.00;;;;;;5050525;28;20828;-74
2022/07/18 12:02:24;;;;;;;6.20;1.03;;;34.40;1.00;;;;;;5062981;28;20412;-74
2022/07/18 12:04:50;;;;;;;1.57;1.10;;;34.50;1.00;;;;;;5041922;28;20424;-74
2022/07/18 12:07:18;;;;;;;2.23;0.97;;;34.50;1.00;;;;;;5048011;28;20188;-74
2022/07/18 12:09:45;;;;;;;2.67;1.00;;;34.50;1.00;;;;;;5037712;28;20181;-77
2022/07/18 12:12:14;;;;;;;9.70;0.90;;;34.50;1.00;;;;;;5033687;28;20396;-77
2022/07/18 12:14:40;;;;;;;2.10;1.30;;;34.50;1.00;;;;;;5037741;28;20862;-76
2022/07/18 12:17:06;;;;;;;1.67;1.00;;;34.50;1.00;;;;;;5053699;28;20395;-76
2022/07/18 12:19:39;;;;;;;3.53;1.10;;;34.30;1.00;;;;;;5053672;28;20417;-77
2022/07/18 12:22:09;;;;;;;2.53;1.30;;;34.40;1.00;;;;;;5053739;28;20747;-77
2022/07/18 12:24:56;;;;;;;1.80;1.13;;;34.50;1.00;;;;;;5046717;28;20414;-76
2022/07/18 12:27:29;;;;;;;1.47;0.90;;;34.70;1.00;;;;;;5050243;28;20537;-77
2022/07/18 12:30:19;;;;;;;1.60;1.03;;;34.80;1.00;;;;;;5038298;28;20418;-77
2022/07/18 12:33:08;;;;;;;0.80;0.80;;;34.90;1.00;;;;;;5037838;28;20451;-77
2022/07/18 12:35:35;;;;;;;1.03;0.93;;;34.90;1.00;;;;;;5037626;28;20418;-77
2022/07/18 12:38:13;;;;;;;1.50;1.20;;;35.00;1.00;;;;;;5051508;28;21019;-77
2022/07/18 12:41:00;;;;;;;1.77;1.27;;;35.20;1.00;;;;;;5046845;28;20813;-77
2022/07/18 12:43:37;;;;;;;1.30;1.03;;;35.00;1.00;;;;;;5047078;28;20411;-77
2022/07/18 12:46:08;;;;;;;3.33;1.30;;;35.10;1.00;;;;;;5043580;28;20417;-77
2022/07/18 12:48:54;;;;;;;4.93;1.17;;;35.20;1.00;;;;;;5048883;28;20411;-78
2022/07/18 12:51:19;;;;;;;1.33;1.00;;;35.30;1.00;;;;;;5042748;28;20521;-76
2022/07/18 12:53:45;;;;;;;4.97;1.07;;;35.30;1.00;;;;;;5040045;28;20497;-73
2022/07/18 12:56:11;;;;;;;1.30;0.90;;;35.30;1.00;;;;;;5046513;28;20583;-74
2022/07/18 12:58:37;;;;;;;3.67;0.80;;;35.30;1.00;;;;;;5046012;28;20180;-74
2022/07/18 13:01:03;;;;;;;1.10;1.00;;;35.30;1.00;;;;;;5045846;28;21173;-77
2022/07/18 13:03:42;;;;;;;1.53;1.20;;;35.30;1.00;;;;;;5052303;28;20444;-75
2022/07/18 13:06:07;;;;;;;3.50;1.33;;;35.40;1.00;;;;;;5039155;28;20432;-73
2022/07/18 13:08:36;;;;;;;0.90;0.90;;;35.50;1.00;;;;;;5043753;28;20970;-77
2022/07/18 13:11:12;;;;;;;1.37;1.13;;;35.60;1.00;;;;;;5037075;28;20548;-78
2022/07/18 13:13:42;;;;;;;6.53;1.20;;;35.60;1.00;;;;;;5044045;28;20429;-77
2022/07/18 13:16:08;;;;;;;2.80;1.00;;;35.60;1.00;;;;;;5051472;28;20423;-77
2022/07/18 13:18:33;;;;;;;3.83;1.00;;;35.70;1.00;;;;;;5053028;28;20403;-76
2022/07/18 13:20:59;;;;;;;0.90;0.80;;;35.80;1.00;;;;;;5042352;28;20202;-77
2022/07/18 13:23:48;;;;;;;3.50;1.13;;;35.80;1.00;;;;;;5057185;28;20172;-80
2022/07/18 13:26:13;;;;;;;1.73;1.00;;;35.80;1.00;;;;;;5042624;28;20179;-81
2022/07/18 13:28:48;;;;;;;4.37;0.90;;;35.90;1.00;;;;;;5043157;28;20494;-80
2022/07/18 13:31:14;;;;;;;1.27;0.90;;;36.00;1.00;;;;;;5053019;28;20680;-79
2022/07/18 13:33:42;;;;;;;1.30;0.97;;;36.20;1.00;;;;;;5042924;28;20415;-79
2022/07/18 13:36:13;;;;;;;1.73;1.07;;;36.30;1.00;;;;;;5042696;28;20292;-80
2022/07/18 13:38:48;;;;;;;5.53;1.10;;;36.50;1.00;;;;;;5036762;28;20514;-80
2022/07/18 13:41:14;;;;;;;5.27;1.23;;;36.70;1.00;;;;;;5045369;28;20548;-80
2022/07/18 13:43:40;;;;;;;1.23;0.90;;;36.80;1.00;;;;;;5043979;28;20518;-80